createdAt,value
2018-12-08T04:01:05.789Z,1006.5
2018-12-08T04:06:04.431Z,1006.6
2018-12-08T04:11:04.380Z,1006.5
2018-12-08T04:16:04.622Z,1006.5
2018-12-08T04:21:04.160Z,1006.4
2018-12-08T04:26:04.403Z,1006.4
2018-12-08T04:31:04.651Z,1006.4
2018-12-08T04:36:04.106Z,1006.4
2018-12-08T04:41:04.695Z,1006.4
2018-12-08T04:46:03.935Z,1006.2
2018-12-08T04:51:04.458Z,1006.2
2018-12-08T04:56:04.613Z,1006.3
2018-12-08T05:01:03.898Z,1006.3
2018-12-08T05:06:04.369Z,1006.3
2018-12-08T05:11:03.957Z,1006.3
2018-12-08T05:16:04.276Z,1006.3
2018-12-08T05:21:04.737Z,1006.3
2018-12-08T05:26:03.913Z,1006.3
2018-12-08T05:31:04.154Z,1006.4
2018-12-08T05:36:04.708Z,1006.1
2018-12-08T05:41:04.224Z,1006.2
2018-12-08T05:46:04.528Z,1006.2
2018-12-08T05:51:03.953Z,1006.2
2018-12-08T05:56:04.174Z,1006
2018-12-08T06:01:04.461Z,1006
2018-12-08T06:06:03.935Z,1006.1
2018-12-08T06:11:04.508Z,1006
2018-12-08T06:16:03.816Z,1006
2018-12-08T06:21:04.324Z,1005.9
2018-12-08T06:26:04.535Z,1005.9
2018-12-08T06:31:03.813Z,1005.9
2018-12-08T06:36:04.293Z,1005.8
2018-12-08T06:41:03.859Z,1005.8
2018-12-08T06:46:04.154Z,1005.9
2018-12-08T06:51:04.652Z,1005.9
2018-12-08T06:56:03.859Z,1005.9
2018-12-08T07:01:04.181Z,1005.8
2018-12-08T07:06:04.622Z,1005.7
2018-12-08T07:11:04.244Z,1005.7
2018-12-08T07:16:04.461Z,1005.7
2018-12-08T07:21:03.992Z,1005.5
2018-12-08T07:26:04.332Z,1005.5
2018-12-08T07:31:04.513Z,1005.4
2018-12-08T07:36:03.955Z,1005.4
2018-12-08T07:41:04.563Z,1005.4
2018-12-08T07:46:03.819Z,1005.5
2018-12-08T07:51:04.269Z,1005.5
2018-12-08T07:56:04.611Z,1005.5
2018-12-08T15:16:04.534Z,1004.5
2018-12-08T15:21:04.567Z,1004.5
2018-12-08T15:26:03.785Z,1004.6
2018-12-08T15:31:04.099Z,1004.5
2018-12-08T15:36:04.557Z,1004.5
2018-12-08T15:41:04.396Z,1004.5
2018-12-08T15:46:04.684Z,1004.4
2018-12-08T15:51:04.121Z,1004.5
2018-12-08T15:56:04.345Z,1004.5
2018-12-08T16:01:04.653Z,1004.4
2018-12-08T16:06:04.204Z,1004.3
2018-12-08T16:11:04.760Z,1004.3
2018-12-08T16:16:04.000Z,1004.3
2018-12-08T16:21:04.478Z,1004.3
2018-12-08T16:26:04.656Z,1004.3
2018-12-08T16:31:03.950Z,1003.8
2018-12-08T16:36:04.432Z,1003.8
2018-12-08T16:41:04.002Z,1003.6
2018-12-08T16:46:04.290Z,1003.6
2018-12-08T16:51:04.787Z,1003.5
2018-12-08T16:56:03.961Z,1003.4
2018-12-08T17:01:04.247Z,1003.4
2018-12-08T17:06:04.681Z,1003.4
2018-12-08T17:11:04.247Z,1003.4
2018-12-08T17:16:04.959Z,1003.4
2018-12-08T17:21:04.052Z,1003.4
2018-12-08T17:26:04.291Z,1003.4
2018-12-08T17:31:04.602Z,1002.6
2018-12-08T17:36:04.060Z,1002.5
2018-12-08T17:41:04.979Z,1002.5
2018-12-08T17:46:03.980Z,1002.3
2018-12-08T17:51:04.336Z,1002.2
2018-12-08T17:56:04.585Z,1002.1
2018-12-08T18:01:03.883Z,1002
2018-12-08T18:06:04.298Z,1001.8
2018-12-08T18:11:03.914Z,1001.8
2018-12-08T18:16:04.242Z,1001.5
2018-12-08T18:21:05.626Z,1001.5
2018-12-08T18:26:03.940Z,1001.5
2018-12-08T18:31:04.300Z,1001.5
2018-12-08T18:36:04.698Z,1001.5
2018-12-08T18:41:04.342Z,1001.5
2018-12-08T18:46:04.561Z,1001.5
2018-12-08T18:51:03.999Z,1001.5
2018-12-08T18:56:04.213Z,1001.5
2018-12-08T19:01:04.502Z,1001.5
2018-12-08T19:06:03.951Z,1001.5
2018-12-08T19:11:04.554Z,1001.5
2018-12-08T19:16:03.913Z,1001.5
2018-12-08T19:21:04.477Z,1001.5
2018-12-08T19:26:04.579Z,1001.5
2018-12-08T19:31:03.930Z,1001.5
2018-12-08T19:36:04.361Z,1001.5
2018-12-08T19:41:03.929Z,1001.5
2018-12-08T19:46:04.199Z,1001.5
2018-12-08T19:51:04.710Z,1001.5
2018-12-08T19:56:03.961Z,1001.5
2018-12-08T20:01:04.230Z,1001.5
2018-12-08T20:06:04.658Z,1001.5
2018-12-08T20:11:04.236Z,1001.5
2018-12-08T20:16:04.581Z,1001.5
2018-12-08T20:21:03.979Z,997.3
2018-12-08T20:26:04.267Z,997.4
2018-12-08T20:31:04.513Z,997.4
2018-12-08T20:36:04.010Z,997.4
2018-12-08T20:41:04.551Z,997.4
2018-12-08T20:46:03.847Z,997.4
2018-12-08T20:51:04.289Z,997.4
2018-12-08T20:56:04.486Z,997.4
2018-12-08T21:01:03.773Z,996.3
2018-12-08T21:06:04.331Z,996.5
2018-12-08T21:11:04.188Z,997.2
2018-12-08T21:16:04.288Z,996.9
2018-12-08T21:21:04.686Z,996.4
2018-12-08T21:26:03.910Z,996.3
2018-12-08T21:31:04.177Z,996.3
2018-12-08T21:36:04.641Z,996.2
2018-12-08T21:41:04.198Z,996.3
2018-12-08T21:46:04.493Z,996.2
2018-12-08T21:51:03.977Z,996.2
2018-12-08T21:56:04.205Z,996.2
2018-12-08T22:01:04.503Z,996.2
2018-12-08T22:06:03.974Z,996.3
2018-12-08T22:11:04.546Z,996.1
2018-12-08T22:16:03.833Z,996.1
2018-12-08T22:21:04.369Z,996.1
2018-12-08T22:26:04.555Z,995.8
2018-12-08T22:31:03.912Z,995.7
2018-12-08T22:36:04.329Z,995.7
2018-12-08T22:41:03.884Z,995.7
